Terminal Aerodrome Forecast
Issued by NWS Knoxville/Tri Cities, TN

Home | Current Version | Previous Version | Text Only | Print | Product List | Glossary On
Versions: 1 2 3 4 5 6 7 8 9 10 11 12 13 14 15
000
FTUS44 KMRX 270352 AAA
TAFTRI
TAF AMD
KTRI 270352Z 2704/2724 25007KT P6SM VCTS SCT050CB BKN080
     FM270600 VRB02KT 5SM BR SCT060 BKN250
     FM270800 VRB01KT 2SM BR SCT010 SCT250
     FM271300 22005KT P6SM SCT250=

USA.gov is the U.S. government's official web portal to all federal, state and local government web resources and services.